sensor_id;sensor_type;location;lat;lon;timestamp;P1;durP1;ratioP1;P2;durP2;ratioP2
10667;SDS011;5382;42.136;24.796;2023-07-22T00:00:02;6.60;;;3.83;;
10667;SDS011;5382;42.136;24.796;2023-07-22T00:02:31;7.68;;;3.83;;
10667;SDS011;5382;42.136;24.796;2023-07-22T00:04:58;4.15;;;3.45;;
10667;SDS011;5382;42.136;24.796;2023-07-22T00:07:24;6.68;;;4.07;;
10667;SDS011;5382;42.136;24.796;2023-07-22T00:09:51;9.55;;;4.28;;
10667;SDS011;5382;42.136;24.796;2023-07-22T00:12:19;5.85;;;4.10;;
10667;SDS011;5382;42.136;24.796;2023-07-22T00:14:50;5.57;;;3.92;;
10667;SDS011;5382;42.136;24.796;2023-07-22T00:17:18;6.55;;;3.97;;
10667;SDS011;5382;42.136;24.796;2023-07-22T00:19:46;8.30;;;4.35;;
10667;SDS011;5382;42.136;24.796;2023-07-22T00:22:13;10.02;;;3.97;;
10667;SDS011;5382;42.136;24.796;2023-07-22T00:24:40;6.93;;;3.97;;
10667;SDS011;5382;42.136;24.796;2023-07-22T00:27:07;7.20;;;4.28;;
10667;SDS011;5382;42.136;24.796;2023-07-22T00:29:35;8.23;;;4.07;;
10667;SDS011;5382;42.136;24.796;2023-07-22T00:32:02;5.13;;;3.72;;
10667;SDS011;5382;42.136;24.796;2023-07-22T00:34:32;7.07;;;3.90;;
10667;SDS011;5382;42.136;24.796;2023-07-22T00:36:59;5.30;;;4.15;;
10667;SDS011;5382;42.136;24.796;2023-07-22T00:39:25;7.55;;;4.15;;
10667;SDS011;5382;42.136;24.796;2023-07-22T00:41:52;8.52;;;4.10;;
10667;SDS011;5382;42.136;24.796;2023-07-22T00:44:19;6.88;;;3.63;;
10667;SDS011;5382;42.136;24.796;2023-07-22T00:46:47;8.85;;;4.15;;
10667;SDS011;5382;42.136;24.796;2023-07-22T00:49:16;6.13;;;4.05;;
10667;SDS011;5382;42.136;24.796;2023-07-22T00:51:43;11.48;;;4.13;;
10667;SDS011;5382;42.136;24.796;2023-07-22T00:54:10;7.85;;;4.50;;
10667;SDS011;5382;42.136;24.796;2023-07-22T00:56:37;6.75;;;4.07;;
10667;SDS011;5382;42.136;24.796;2023-07-22T00:59:06;7.38;;;4.13;;
10667;SDS011;5382;42.136;24.796;2023-07-22T01:01:33;5.18;;;4.15;;
10667;SDS011;5382;42.136;24.796;2023-07-22T01:04:01;5.40;;;4.18;;
10667;SDS011;5382;42.136;24.796;2023-07-22T01:06:29;7.00;;;4.55;;
10667;SDS011;5382;42.136;24.796;2023-07-22T01:08:56;5.05;;;4.20;;
10667;SDS011;5382;42.136;24.796;2023-07-22T01:11:24;5.60;;;4.07;;
10667;SDS011;5382;42.136;24.796;2023-07-22T01:13:51;6.25;;;4.55;;
10667;SDS011;5382;42.136;24.796;2023-07-22T01:16:23;6.43;;;4.07;;
10667;SDS011;5382;42.136;24.796;2023-07-22T01:18:51;7.32;;;4.32;;
10667;SDS011;5382;42.136;24.796;2023-07-22T01:21:21;6.30;;;4.53;;
10667;SDS011;5382;42.136;24.796;2023-07-22T01:23:51;6.35;;;4.10;;
10667;SDS011;5382;42.136;24.796;2023-07-22T01:26:19;7.45;;;4.57;;
10667;SDS011;5382;42.136;24.796;2023-07-22T01:28:45;6.80;;;4.22;;
10667;SDS011;5382;42.136;24.796;2023-07-22T01:31:12;7.28;;;4.22;;
10667;SDS011;5382;42.136;24.796;2023-07-22T01:33:39;5.20;;;4.30;;
10667;SDS011;5382;42.136;24.796;2023-07-22T01:36:06;5.72;;;4.50;;
10667;SDS011;5382;42.136;24.796;2023-07-22T01:38:33;7.20;;;4.57;;
10667;SDS011;5382;42.136;24.796;2023-07-22T01:41:02;9.75;;;4.50;;
10667;SDS011;5382;42.136;24.796;2023-07-22T01:43:29;6.68;;;4.30;;
10667;SDS011;5382;42.136;24.796;2023-07-22T01:45:56;6.93;;;4.20;;
10667;SDS011;5382;42.136;24.796;2023-07-22T01:48:22;5.95;;;4.22;;
10667;SDS011;5382;42.136;24.796;2023-07-22T01:50:49;7.57;;;4.25;;
10667;SDS011;5382;42.136;24.796;2023-07-22T01:53:16;6.57;;;4.53;;
10667;SDS011;5382;42.136;24.796;2023-07-22T01:55:43;5.90;;;4.28;;
10667;SDS011;5382;42.136;24.796;2023-07-22T01:58:12;7.72;;;4.82;;
10667;SDS011;5382;42.136;24.796;2023-07-22T02:00:38;7.97;;;4.85;;
10667;SDS011;5382;42.136;24.796;2023-07-22T02:03:05;6.43;;;4.90;;
10667;SDS011;5382;42.136;24.796;2023-07-22T02:05:32;7.85;;;4.85;;
10667;SDS011;5382;42.136;24.796;2023-07-22T02:07:59;10.32;;;4.63;;
10667;SDS011;5382;42.136;24.796;2023-07-22T02:10:26;11.38;;;4.50;;
10667;SDS011;5382;42.136;24.796;2023-07-22T02:12:52;72.45;;;8.82;;
10667;SDS011;5382;42.136;24.796;2023-07-22T02:15:20;11.75;;;4.75;;
10667;SDS011;5382;42.136;24.796;2023-07-22T02:17:49;7.38;;;4.60;;
10667;SDS011;5382;42.136;24.796;2023-07-22T02:20:16;5.65;;;4.13;;
10667;SDS011;5382;42.136;24.796;2023-07-22T02:22:43;8.60;;;4.60;;
10667;SDS011;5382;42.136;24.796;2023-07-22T02:25:10;6.47;;;4.43;;
10667;SDS011;5382;42.136;24.796;2023-07-22T02:27:37;7.10;;;4.55;;
10667;SDS011;5382;42.136;24.796;2023-07-22T02:30:06;7.88;;;4.60;;
10667;SDS011;5382;42.136;24.796;2023-07-22T02:32:36;6.60;;;4.63;;
10667;SDS011;5382;42.136;24.796;2023-07-22T02:35:04;6.10;;;4.63;;
10667;SDS011;5382;42.136;24.796;2023-07-22T02:37:32;8.63;;;5.40;;
10667;SDS011;5382;42.136;24.796;2023-07-22T02:39:59;6.60;;;4.72;;
10667;SDS011;5382;42.136;24.796;2023-07-22T02:42:26;10.40;;;5.28;;
10667;SDS011;5382;42.136;24.796;2023-07-22T02:44:52;6.13;;;4.70;;
10667;SDS011;5382;42.136;24.796;2023-07-22T02:47:19;8.15;;;4.72;;
10667;SDS011;5382;42.136;24.796;2023-07-22T02:49:48;5.85;;;4.78;;
10667;SDS011;5382;42.136;24.796;2023-07-22T02:52:14;5.68;;;4.55;;
10667;SDS011;5382;42.136;24.796;2023-07-22T02:54:41;6.25;;;4.88;;
10667;SDS011;5382;42.136;24.796;2023-07-22T02:57:08;7.53;;;4.90;;
10667;SDS011;5382;42.136;24.796;2023-07-22T02:59:35;8.85;;;5.45;;
10667;SDS011;5382;42.136;24.796;2023-07-22T03:02:02;7.45;;;5.40;;
10667;SDS011;5382;42.136;24.796;2023-07-22T03:04:29;8.85;;;5.35;;
10667;SDS011;5382;42.136;24.796;2023-07-22T03:06:57;5.72;;;5.13;;
10667;SDS011;5382;42.136;24.796;2023-07-22T03:09:25;7.03;;;5.65;;
10667;SDS011;5382;42.136;24.796;2023-07-22T03:11:52;6.88;;;4.95;;
10667;SDS011;5382;42.136;24.796;2023-07-22T03:14:18;7.45;;;5.18;;
10667;SDS011;5382;42.136;24.796;2023-07-22T03:16:47;6.93;;;4.80;;
10667;SDS011;5382;42.136;24.796;2023-07-22T03:19:14;10.80;;;5.22;;
10667;SDS011;5382;42.136;24.796;2023-07-22T03:21:40;9.32;;;5.13;;
10667;SDS011;5382;42.136;24.796;2023-07-22T03:24:09;7.07;;;5.03;;
10667;SDS011;5382;42.136;24.796;2023-07-22T03:26:36;6.72;;;5.07;;
10667;SDS011;5382;42.136;24.796;2023-07-22T03:29:03;7.78;;;5.47;;
10667;SDS011;5382;42.136;24.796;2023-07-22T03:31:31;7.25;;;5.75;;
10667;SDS011;5382;42.136;24.796;2023-07-22T03:33:58;5.90;;;5.22;;
10667;SDS011;5382;42.136;24.796;2023-07-22T03:36:25;8.52;;;5.78;;
10667;SDS011;5382;42.136;24.796;2023-07-22T03:38:53;8.32;;;5.50;;
10667;SDS011;5382;42.136;24.796;2023-07-22T03:41:21;8.73;;;5.72;;
10667;SDS011;5382;42.136;24.796;2023-07-22T03:43:48;8.10;;;5.53;;
10667;SDS011;5382;42.136;24.796;2023-07-22T03:46:15;6.85;;;5.45;;
10667;SDS011;5382;42.136;24.796;2023-07-22T03:48:41;6.72;;;5.90;;
10667;SDS011;5382;42.136;24.796;2023-07-22T03:51:08;9.02;;;5.60;;
10667;SDS011;5382;42.136;24.796;2023-07-22T03:53:35;8.48;;;5.97;;
10667;SDS011;5382;42.136;24.796;2023-07-22T03:56:02;8.00;;;5.53;;
10667;SDS011;5382;42.136;24.796;2023-07-22T03:58:30;6.90;;;5.32;;
10667;SDS011;5382;42.136;24.796;2023-07-22T04:00:57;10.77;;;5.63;;
10667;SDS011;5382;42.136;24.796;2023-07-22T04:03:24;7.78;;;5.57;;
10667;SDS011;5382;42.136;24.796;2023-07-22T04:05:54;9.02;;;5.97;;
10667;SDS011;5382;42.136;24.796;2023-07-22T04:08:21;9.65;;;5.65;;
10667;SDS011;5382;42.136;24.796;2023-07-22T04:10:51;9.38;;;6.70;;
10667;SDS011;5382;42.136;24.796;2023-07-22T04:13:18;7.55;;;6.63;;
10667;SDS011;5382;42.136;24.796;2023-07-22T04:15:46;10.18;;;6.30;;
10667;SDS011;5382;42.136;24.796;2023-07-22T04:18:14;11.30;;;6.30;;
10667;SDS011;5382;42.136;24.796;2023-07-22T04:20:41;7.15;;;6.07;;
10667;SDS011;5382;42.136;24.796;2023-07-22T04:23:08;8.95;;;5.88;;
10667;SDS011;5382;42.136;24.796;2023-07-22T04:25:38;9.50;;;5.97;;
10667;SDS011;5382;42.136;24.796;2023-07-22T04:28:05;7.28;;;5.88;;
10667;SDS011;5382;42.136;24.796;2023-07-22T04:30:33;8.55;;;6.03;;
10667;SDS011;5382;42.136;24.796;2023-07-22T04:33:01;8.52;;;5.63;;
10667;SDS011;5382;42.136;24.796;2023-07-22T04:35:31;10.40;;;6.63;;
10667;SDS011;5382;42.136;24.796;2023-07-22T04:37:58;9.35;;;5.68;;
10667;SDS011;5382;42.136;24.796;2023-07-22T04:40:24;10.93;;;6.18;;
10667;SDS011;5382;42.136;24.796;2023-07-22T04:42:51;10.40;;;5.95;;
10667;SDS011;5382;42.136;24.796;2023-07-22T04:45:18;9.13;;;6.28;;
10667;SDS011;5382;42.136;24.796;2023-07-22T04:47:45;6.75;;;6.10;;
10667;SDS011;5382;42.136;24.796;2023-07-22T04:50:13;7.30;;;6.25;;
10667;SDS011;5382;42.136;24.796;2023-07-22T04:52:41;11.07;;;6.57;;
10667;SDS011;5382;42.136;24.796;2023-07-22T04:55:08;12.20;;;6.43;;
10667;SDS011;5382;42.136;24.796;2023-07-22T04:57:36;15.35;;;6.60;;
10667;SDS011;5382;42.136;24.796;2023-07-22T05:00:04;7.97;;;6.28;;
10667;SDS011;5382;42.136;24.796;2023-07-22T05:02:34;10.20;;;6.68;;
10667;SDS011;5382;42.136;24.796;2023-07-22T05:05:01;10.15;;;6.55;;
10667;SDS011;5382;42.136;24.796;2023-07-22T05:07:30;7.80;;;5.90;;
10667;SDS011;5382;42.136;24.796;2023-07-22T05:09:57;8.68;;;6.05;;
10667;SDS011;5382;42.136;24.796;2023-07-22T05:12:23;7.20;;;5.68;;
10667;SDS011;5382;42.136;24.796;2023-07-22T05:14:50;8.18;;;5.53;;
10667;SDS011;5382;42.136;24.796;2023-07-22T05:17:17;9.07;;;5.97;;
10667;SDS011;5382;42.136;24.796;2023-07-22T05:19:44;9.25;;;6.07;;
10667;SDS011;5382;42.136;24.796;2023-07-22T05:22:13;8.00;;;6.63;;
10667;SDS011;5382;42.136;24.796;2023-07-22T05:24:42;9.88;;;6.80;;
10667;SDS011;5382;42.136;24.796;2023-07-22T05:27:08;11.88;;;6.60;;
10667;SDS011;5382;42.136;24.796;2023-07-22T05:29:35;7.95;;;6.60;;
10667;SDS011;5382;42.136;24.796;2023-07-22T05:32:02;8.60;;;6.35;;
10667;SDS011;5382;42.136;24.796;2023-07-22T05:34:29;7.88;;;7.07;;
10667;SDS011;5382;42.136;24.796;2023-07-22T05:36:56;10.10;;;6.55;;
10667;SDS011;5382;42.136;24.796;2023-07-22T05:39:22;11.48;;;6.53;;
10667;SDS011;5382;42.136;24.796;2023-07-22T05:41:51;8.27;;;6.78;;
10667;SDS011;5382;42.136;24.796;2023-07-22T05:44:18;7.93;;;6.38;;
10667;SDS011;5382;42.136;24.796;2023-07-22T05:46:45;9.25;;;6.63;;
10667;SDS011;5382;42.136;24.796;2023-07-22T05:49:12;11.32;;;7.30;;
10667;SDS011;5382;42.136;24.796;2023-07-22T05:51:38;11.73;;;6.88;;
10667;SDS011;5382;42.136;24.796;2023-07-22T05:54:05;9.65;;;6.38;;
10667;SDS011;5382;42.136;24.796;2023-07-22T05:56:32;10.23;;;6.65;;
10667;SDS011;5382;42.136;24.796;2023-07-22T05:59:00;10.00;;;6.25;;
10667;SDS011;5382;42.136;24.796;2023-07-22T06:01:27;8.18;;;6.32;;
10667;SDS011;5382;42.136;24.796;2023-07-22T06:03:54;7.25;;;6.50;;
10667;SDS011;5382;42.136;24.796;2023-07-22T06:06:21;8.95;;;6.88;;
10667;SDS011;5382;42.136;24.796;2023-07-22T06:08:47;11.40;;;6.97;;
10667;SDS011;5382;42.136;24.796;2023-07-22T06:11:14;7.53;;;6.25;;
10667;SDS011;5382;42.136;24.796;2023-07-22T06:13:41;11.57;;;6.72;;
10667;SDS011;5382;42.136;24.796;2023-07-22T06:16:09;10.00;;;8.10;;
10667;SDS011;5382;42.136;24.796;2023-07-22T06:18:36;10.75;;;6.50;;
10667;SDS011;5382;42.136;24.796;2023-07-22T06:21:03;11.00;;;7.22;;
10667;SDS011;5382;42.136;24.796;2023-07-22T06:23:30;14.45;;;7.63;;
10667;SDS011;5382;42.136;24.796;2023-07-22T06:25:56;8.80;;;7.22;;
10667;SDS011;5382;42.136;24.796;2023-07-22T06:28:23;11.43;;;7.47;;
10667;SDS011;5382;42.136;24.796;2023-07-22T06:30:50;9.10;;;6.93;;
10667;SDS011;5382;42.136;24.796;2023-07-22T06:33:18;10.73;;;7.93;;
10667;SDS011;5382;42.136;24.796;2023-07-22T06:35:45;9.55;;;7.03;;
10667;SDS011;5382;42.136;24.796;2023-07-22T06:38:12;8.07;;;7.28;;
10667;SDS011;5382;42.136;24.796;2023-07-22T06:40:39;10.05;;;7.32;;
10667;SDS011;5382;42.136;24.796;2023-07-22T06:43:06;11.35;;;7.05;;
10667;SDS011;5382;42.136;24.796;2023-07-22T06:45:33;10.75;;;7.93;;
10667;SDS011;5382;42.136;24.796;2023-07-22T06:47:59;9.45;;;6.85;;
10667;SDS011;5382;42.136;24.796;2023-07-22T06:50:28;9.80;;;7.47;;
10667;SDS011;5382;42.136;24.796;2023-07-22T06:52:55;10.73;;;7.07;;
10667;SDS011;5382;42.136;24.796;2023-07-22T06:55:22;10.60;;;7.55;;
10667;SDS011;5382;42.136;24.796;2023-07-22T06:57:48;10.57;;;7.55;;
10667;SDS011;5382;42.136;24.796;2023-07-22T07:00:15;9.15;;;6.80;;
10667;SDS011;5382;42.136;24.796;2023-07-22T07:02:42;9.70;;;6.55;;
10667;SDS011;5382;42.136;24.796;2023-07-22T07:05:09;9.98;;;7.20;;
10667;SDS011;5382;42.136;24.796;2023-07-22T07:07:37;13.43;;;6.88;;
10667;SDS011;5382;42.136;24.796;2023-07-22T07:10:04;11.13;;;7.38;;
10667;SDS011;5382;42.136;24.796;2023-07-22T07:12:32;8.88;;;7.82;;
10667;SDS011;5382;42.136;24.796;2023-07-22T07:14:59;12.15;;;8.88;;
10667;SDS011;5382;42.136;24.796;2023-07-22T07:17:26;11.38;;;7.75;;
10667;SDS011;5382;42.136;24.796;2023-07-22T07:19:53;15.52;;;7.10;;
10667;SDS011;5382;42.136;24.796;2023-07-22T07:22:20;9.18;;;6.38;;
10667;SDS011;5382;42.136;24.796;2023-07-22T07:24:48;16.45;;;7.28;;
10667;SDS011;5382;42.136;24.796;2023-07-22T07:27:15;7.57;;;6.40;;
10667;SDS011;5382;42.136;24.796;2023-07-22T07:29:42;9.38;;;6.50;;
10667;SDS011;5382;42.136;24.796;2023-07-22T07:32:09;12.50;;;7.65;;
10667;SDS011;5382;42.136;24.796;2023-07-22T07:34:35;8.20;;;6.97;;
10667;SDS011;5382;42.136;24.796;2023-07-22T07:37:02;11.98;;;7.32;;
10667;SDS011;5382;42.136;24.796;2023-07-22T07:39:30;14.88;;;6.68;;
10667;SDS011;5382;42.136;24.796;2023-07-22T07:41:58;9.80;;;6.60;;
10667;SDS011;5382;42.136;24.796;2023-07-22T07:44:25;9.93;;;7.30;;
10667;SDS011;5382;42.136;24.796;2023-07-22T07:46:51;11.15;;;7.03;;
10667;SDS011;5382;42.136;24.796;2023-07-22T07:49:18;11.02;;;7.28;;
10667;SDS011;5382;42.136;24.796;2023-07-22T07:51:45;9.80;;;7.38;;
10667;SDS011;5382;42.136;24.796;2023-07-22T07:54:12;11.82;;;7.05;;
10667;SDS011;5382;42.136;24.796;2023-07-22T07:56:40;8.85;;;7.07;;
10667;SDS011;5382;42.136;24.796;2023-07-22T07:59:08;8.60;;;6.90;;
10667;SDS011;5382;42.136;24.796;2023-07-22T08:01:35;12.77;;;6.88;;
10667;SDS011;5382;42.136;24.796;2023-07-22T08:04:06;11.15;;;6.43;;
10667;SDS011;5382;42.136;24.796;2023-07-22T08:06:33;11.93;;;6.82;;
10667;SDS011;5382;42.136;24.796;2023-07-22T08:09:01;16.17;;;7.13;;
10667;SDS011;5382;42.136;24.796;2023-07-22T08:11:30;8.32;;;6.80;;
10667;SDS011;5382;42.136;24.796;2023-07-22T08:13:57;10.43;;;6.68;;
10667;SDS011;5382;42.136;24.796;2023-07-22T08:16:25;11.43;;;7.10;;
10667;SDS011;5382;42.136;24.796;2023-07-22T08:18:53;10.60;;;6.60;;
10667;SDS011;5382;42.136;24.796;2023-07-22T08:21:19;7.25;;;6.28;;
10667;SDS011;5382;42.136;24.796;2023-07-22T08:23:46;9.40;;;6.75;;
10667;SDS011;5382;42.136;24.796;2023-07-22T08:26:13;11.57;;;7.05;;
10667;SDS011;5382;42.136;24.796;2023-07-22T08:28:43;11.38;;;7.15;;
10667;SDS011;5382;42.136;24.796;2023-07-22T08:31:09;10.07;;;6.57;;
10667;SDS011;5382;42.136;24.796;2023-07-22T08:33:38;16.23;;;7.55;;
10667;SDS011;5382;42.136;24.796;2023-07-22T08:36:04;8.23;;;6.78;;
10667;SDS011;5382;42.136;24.796;2023-07-22T08:38:31;10.23;;;7.78;;
10667;SDS011;5382;42.136;24.796;2023-07-22T08:40:58;9.80;;;6.40;;
10667;SDS011;5382;42.136;24.796;2023-07-22T08:43:25;10.50;;;7.55;;
10667;SDS011;5382;42.136;24.796;2023-07-22T08:45:54;13.57;;;7.97;;
10667;SDS011;5382;42.136;24.796;2023-07-22T08:48:24;12.18;;;8.32;;
10667;SDS011;5382;42.136;24.796;2023-07-22T08:50:54;38.97;;;8.27;;
10667;SDS011;5382;42.136;24.796;2023-07-22T08:53:24;13.68;;;6.95;;
10667;SDS011;5382;42.136;24.796;2023-07-22T08:55:52;9.45;;;7.63;;
10667;SDS011;5382;42.136;24.796;2023-07-22T08:58:20;7.57;;;6.80;;
10667;SDS011;5382;42.136;24.796;2023-07-22T09:00:48;8.70;;;7.13;;
10667;SDS011;5382;42.136;24.796;2023-07-22T09:03:15;11.70;;;6.72;;
10667;SDS011;5382;42.136;24.796;2023-07-22T09:05:43;11.20;;;7.15;;
10667;SDS011;5382;42.136;24.796;2023-07-22T09:08:12;9.40;;;7.55;;
10667;SDS011;5382;42.136;24.796;2023-07-22T09:10:39;9.02;;;7.55;;
10667;SDS011;5382;42.136;24.796;2023-07-22T09:13:08;10.15;;;7.53;;
10667;SDS011;5382;42.136;24.796;2023-07-22T09:15:35;10.48;;;7.65;;
10667;SDS011;5382;42.136;24.796;2023-07-22T09:18:03;10.52;;;8.13;;
10667;SDS011;5382;42.136;24.796;2023-07-22T09:20:30;14.05;;;8.07;;
10667;SDS011;5382;42.136;24.796;2023-07-22T09:22:58;9.48;;;7.53;;
10667;SDS011;5382;42.136;24.796;2023-07-22T09:25:27;10.48;;;7.32;;
10667;SDS011;5382;42.136;24.796;2023-07-22T09:27:55;9.55;;;7.38;;
10667;SDS011;5382;42.136;24.796;2023-07-22T09:30:25;11.13;;;7.82;;
10667;SDS011;5382;42.136;24.796;2023-07-22T09:32:53;13.05;;;7.75;;
10667;SDS011;5382;42.136;24.796;2023-07-22T09:35:22;9.70;;;7.32;;
10667;SDS011;5382;42.136;24.796;2023-07-22T09:37:50;10.15;;;7.45;;
10667;SDS011;5382;42.136;24.796;2023-07-22T09:40:19;11.52;;;7.72;;
10667;SDS011;5382;42.136;24.796;2023-07-22T09:42:49;7.90;;;7.07;;
10667;SDS011;5382;42.136;24.796;2023-07-22T09:45:17;10.02;;;7.53;;
10667;SDS011;5382;42.136;24.796;2023-07-22T09:47:44;9.48;;;7.18;;
10667;SDS011;5382;42.136;24.796;2023-07-22T09:50:16;10.02;;;6.90;;
10667;SDS011;5382;42.136;24.796;2023-07-22T09:52:47;14.10;;;7.00;;
10667;SDS011;5382;42.136;24.796;2023-07-22T09:55:16;7.93;;;7.13;;
10667;SDS011;5382;42.136;24.796;2023-07-22T09:57:45;10.68;;;7.35;;
10667;SDS011;5382;42.136;24.796;2023-07-22T10:00:15;9.93;;;7.57;;
10667;SDS011;5382;42.136;24.796;2023-07-22T10:02:44;12.77;;;6.88;;
10667;SDS011;5382;42.136;24.796;2023-07-22T10:05:14;12.32;;;6.93;;
10667;SDS011;5382;42.136;24.796;2023-07-22T10:07:43;9.38;;;7.40;;
10667;SDS011;5382;42.136;24.796;2023-07-22T10:10:11;11.60;;;8.27;;
10667;SDS011;5382;42.136;24.796;2023-07-22T10:12:41;14.10;;;7.55;;
10667;SDS011;5382;42.136;24.796;2023-07-22T10:15:09;13.18;;;8.05;;
10667;SDS011;5382;42.136;24.796;2023-07-22T10:17:38;10.55;;;7.13;;
10667;SDS011;5382;42.136;24.796;2023-07-22T10:20:06;11.45;;;7.40;;
10667;SDS011;5382;42.136;24.796;2023-07-22T10:22:35;9.43;;;7.47;;
10667;SDS011;5382;42.136;24.796;2023-07-22T10:25:04;9.63;;;6.85;;
10667;SDS011;5382;42.136;24.796;2023-07-22T10:27:32;10.73;;;7.05;;
10667;SDS011;5382;42.136;24.796;2023-07-22T10:30:01;8.55;;;7.65;;
10667;SDS011;5382;42.136;24.796;2023-07-22T10:32:32;9.88;;;6.90;;
10667;SDS011;5382;42.136;24.796;2023-07-22T10:35:02;70.50;;;10.30;;
10667;SDS011;5382;42.136;24.796;2023-07-22T10:37:30;11.05;;;7.10;;
10667;SDS011;5382;42.136;24.796;2023-07-22T10:40:00;11.27;;;6.72;;
10667;SDS011;5382;42.136;24.796;2023-07-22T10:42:28;12.35;;;7.45;;
10667;SDS011;5382;42.136;24.796;2023-07-22T10:44:59;17.08;;;7.85;;
10667;SDS011;5382;42.136;24.796;2023-07-22T10:47:31;12.05;;;7.30;;
10667;SDS011;5382;42.136;24.796;2023-07-22T10:50:06;11.95;;;7.50;;
10667;SDS011;5382;42.136;24.796;2023-07-22T10:52:38;11.80;;;6.70;;
10667;SDS011;5382;42.136;24.796;2023-07-22T10:55:13;11.82;;;6.50;;
10667;SDS011;5382;42.136;24.796;2023-07-22T10:57:47;11.02;;;6.57;;
10667;SDS011;5382;42.136;24.796;2023-07-22T11:00:19;11.77;;;6.80;;
10667;SDS011;5382;42.136;24.796;2023-07-22T11:02:47;13.52;;;7.07;;
10667;SDS011;5382;42.136;24.796;2023-07-22T11:05:48;9.25;;;6.95;;
10667;SDS011;5382;42.136;24.796;2023-07-22T11:08:36;10.82;;;6.38;;
10667;SDS011;5382;42.136;24.796;2023-07-22T11:11:04;9.90;;;6.20;;
10667;SDS011;5382;42.136;24.796;2023-07-22T11:13:34;11.43;;;6.38;;
10667;SDS011;5382;42.136;24.796;2023-07-22T11:16:04;10.00;;;6.85;;
10667;SDS011;5382;42.136;24.796;2023-07-22T11:18:35;14.15;;;6.68;;
10667;SDS011;5382;42.136;24.796;2023-07-22T11:21:08;10.77;;;6.18;;
10667;SDS011;5382;42.136;24.796;2023-07-22T11:23:36;11.98;;;6.82;;
10667;SDS011;5382;42.136;24.796;2023-07-22T11:26:03;14.00;;;6.68;;
10667;SDS011;5382;42.136;24.796;2023-07-22T11:28:30;9.18;;;5.97;;
10667;SDS011;5382;42.136;24.796;2023-07-22T11:30:57;7.93;;;6.15;;
10667;SDS011;5382;42.136;24.796;2023-07-22T11:33:26;11.65;;;6.25;;
10667;SDS011;5382;42.136;24.796;2023-07-22T11:36:03;15.93;;;6.32;;
10667;SDS011;5382;42.136;24.796;2023-07-22T11:38:31;14.38;;;6.03;;
10667;SDS011;5382;42.136;24.796;2023-07-22T11:40:58;13.48;;;6.28;;
10667;SDS011;5382;42.136;24.796;2023-07-22T11:43:25;10.18;;;6.03;;
10667;SDS011;5382;42.136;24.796;2023-07-22T11:45:53;13.80;;;5.82;;
10667;SDS011;5382;42.136;24.796;2023-07-22T11:48:20;12.73;;;6.15;;
10667;SDS011;5382;42.136;24.796;2023-07-22T11:50:46;11.48;;;6.20;;
10667;SDS011;5382;42.136;24.796;2023-07-22T11:53:14;10.23;;;6.43;;
10667;SDS011;5382;42.136;24.796;2023-07-22T11:55:42;11.18;;;6.50;;
10667;SDS011;5382;42.136;24.796;2023-07-22T11:58:10;15.15;;;6.40;;
10667;SDS011;5382;42.136;24.796;2023-07-22T12:00:36;10.00;;;5.53;;
10667;SDS011;5382;42.136;24.796;2023-07-22T12:03:06;9.27;;;6.05;;
10667;SDS011;5382;42.136;24.796;2023-07-22T12:05:34;17.02;;;6.25;;
10667;SDS011;5382;42.136;24.796;2023-07-22T12:08:02;8.98;;;5.65;;
10667;SDS011;5382;42.136;24.796;2023-07-22T12:10:31;13.43;;;6.13;;
10667;SDS011;5382;42.136;24.796;2023-07-22T12:13:01;9.82;;;6.60;;
10667;SDS011;5382;42.136;24.796;2023-07-22T12:15:28;16.33;;;6.13;;
10667;SDS011;5382;42.136;24.796;2023-07-22T12:17:56;13.45;;;6.00;;
10667;SDS011;5382;42.136;24.796;2023-07-22T12:20:23;14.60;;;6.60;;
10667;SDS011;5382;42.136;24.796;2023-07-22T12:22:51;10.32;;;6.63;;
10667;SDS011;5382;42.136;24.796;2023-07-22T12:25:18;14.02;;;5.95;;
10667;SDS011;5382;42.136;24.796;2023-07-22T12:27:45;9.82;;;5.80;;
10667;SDS011;5382;42.136;24.796;2023-07-22T12:30:13;11.73;;;6.53;;
10667;SDS011;5382;42.136;24.796;2023-07-22T12:32:40;13.80;;;6.05;;
10667;SDS011;5382;42.136;24.796;2023-07-22T12:35:07;16.33;;;6.10;;
10667;SDS011;5382;42.136;24.796;2023-07-22T12:37:34;9.90;;;6.05;;
10667;SDS011;5382;42.136;24.796;2023-07-22T12:40:01;12.02;;;5.88;;
10667;SDS011;5382;42.136;24.796;2023-07-22T12:42:31;12.38;;;5.88;;
10667;SDS011;5382;42.136;24.796;2023-07-22T12:44:57;11.02;;;6.15;;
10667;SDS011;5382;42.136;24.796;2023-07-22T12:47:25;12.07;;;6.55;;
10667;SDS011;5382;42.136;24.796;2023-07-22T12:49:52;12.20;;;5.93;;
10667;SDS011;5382;42.136;24.796;2023-07-22T12:52:19;19.15;;;6.55;;
10667;SDS011;5382;42.136;24.796;2023-07-22T12:54:46;16.02;;;6.18;;
10667;SDS011;5382;42.136;24.796;2023-07-22T12:57:13;16.73;;;5.55;;
10667;SDS011;5382;42.136;24.796;2023-07-22T12:59:40;11.30;;;5.68;;
10667;SDS011;5382;42.136;24.796;2023-07-22T13:02:07;11.43;;;6.10;;
10667;SDS011;5382;42.136;24.796;2023-07-22T13:04:35;13.75;;;5.85;;
10667;SDS011;5382;42.136;24.796;2023-07-22T13:07:02;11.40;;;5.65;;
10667;SDS011;5382;42.136;24.796;2023-07-22T13:09:29;20.27;;;6.60;;
10667;SDS011;5382;42.136;24.796;2023-07-22T13:11:56;9.18;;;5.60;;
10667;SDS011;5382;42.136;24.796;2023-07-22T13:14:23;11.30;;;5.63;;
10667;SDS011;5382;42.136;24.796;2023-07-22T13:16:49;14.85;;;5.80;;
10667;SDS011;5382;42.136;24.796;2023-07-22T13:19:16;9.02;;;5.70;;
10667;SDS011;5382;42.136;24.796;2023-07-22T13:21:44;29.13;;;6.70;;
10667;SDS011;5382;42.136;24.796;2023-07-22T13:24:11;14.02;;;5.72;;
10667;SDS011;5382;42.136;24.796;2023-07-22T13:26:39;15.18;;;6.15;;
10667;SDS011;5382;42.136;24.796;2023-07-22T13:29:06;9.68;;;5.63;;
10667;SDS011;5382;42.136;24.796;2023-07-22T13:31:34;14.50;;;5.90;;
10667;SDS011;5382;42.136;24.796;2023-07-22T13:34:00;16.52;;;6.57;;
10667;SDS011;5382;42.136;24.796;2023-07-22T13:36:27;32.70;;;7.30;;
10667;SDS011;5382;42.136;24.796;2023-07-22T13:38:55;16.83;;;6.00;;
10667;SDS011;5382;42.136;24.796;2023-07-22T13:41:22;13.93;;;6.15;;
10667;SDS011;5382;42.136;24.796;2023-07-22T13:43:49;13.90;;;6.15;;
10667;SDS011;5382;42.136;24.796;2023-07-22T13:46:16;11.73;;;5.60;;
10667;SDS011;5382;42.136;24.796;2023-07-22T13:48:43;13.93;;;6.57;;
10667;SDS011;5382;42.136;24.796;2023-07-22T13:51:09;15.55;;;6.28;;
10667;SDS011;5382;42.136;24.796;2023-07-22T13:53:36;11.88;;;5.75;;
10667;SDS011;5382;42.136;24.796;2023-07-22T13:56:05;9.85;;;5.80;;
10667;SDS011;5382;42.136;24.796;2023-07-22T13:58:32;12.23;;;6.38;;
10667;SDS011;5382;42.136;24.796;2023-07-22T14:00:59;12.48;;;5.90;;
10667;SDS011;5382;42.136;24.796;2023-07-22T14:03:25;12.32;;;5.47;;
10667;SDS011;5382;42.136;24.796;2023-07-22T14:05:52;15.88;;;5.75;;
10667;SDS011;5382;42.136;24.796;2023-07-22T14:08:19;12.77;;;5.47;;
10667;SDS011;5382;42.136;24.796;2023-07-22T14:10:46;17.45;;;6.72;;
10667;SDS011;5382;42.136;24.796;2023-07-22T14:13:14;18.13;;;5.80;;
10667;SDS011;5382;42.136;24.796;2023-07-22T14:15:41;12.45;;;5.90;;
10667;SDS011;5382;42.136;24.796;2023-07-22T14:18:08;12.35;;;5.70;;
10667;SDS011;5382;42.136;24.796;2023-07-22T14:20:34;12.95;;;6.15;;
10667;SDS011;5382;42.136;24.796;2023-07-22T14:23:01;17.65;;;6.18;;
10667;SDS011;5382;42.136;24.796;2023-07-22T14:25:29;19.02;;;5.82;;
10667;SDS011;5382;42.136;24.796;2023-07-22T14:27:55;14.65;;;5.95;;
10667;SDS011;5382;42.136;24.796;2023-07-22T14:30:23;20.13;;;6.32;;
10667;SDS011;5382;42.136;24.796;2023-07-22T14:32:50;13.20;;;6.00;;
10667;SDS011;5382;42.136;24.796;2023-07-22T14:35:17;14.70;;;5.57;;
10667;SDS011;5382;42.136;24.796;2023-07-22T14:37:44;16.00;;;5.85;;
10667;SDS011;5382;42.136;24.796;2023-07-22T14:40:12;13.25;;;5.60;;
10667;SDS011;5382;42.136;24.796;2023-07-22T14:42:39;11.98;;;6.07;;